Quick Links (Output Below):   Max & Min Temps   /   Climate Reports   /   Zone Forecasts
River Forecasts   /   Forestry Forecasts   /   Aviation Forecasts   /   Radars   /   Features

Terminal Aerodrome Forecast (Mountain Home)

Pick a Site:
Arkadelphia | El Dorado | Fayetteville | Fort Smith | Harrison | Highfill | Hot Springs | Jonesboro
Little Rock | Monticello | Mountain Home | Pine Bluff | Texarkana
 Forecast 

KBPK 240539Z 2406/2506 14006KT P6SM OVC250
     FM241400 16012G18KT P6SM VCSH SCT025 BKN050
     FM241800 20014G24KT P6SM -SHRA VCTS OVC025CB PROB30 2418/2424
      4SM -TSRA BR OVC020CB
     FM250300 28007KT P6SM SCT040=


 Latest METARs (Observations) 
How to Decode METARs
07Z KBPK 240653Z AUTO 11006KT 10SM CLR 15/04 A2987 RMK AO2 SLP109
         T01500039
         
06Z KBPK 240553Z AUTO 13004KT 10SM CLR 16/05 A2988 RMK AO2 SLP113
         T01560050 10228 20156 402500083 58004
         
05Z KBPK 240453Z AUTO 13007KT 10SM CLR 16/05 A2988 RMK AO2 SLP113
         T01610050
         
04Z KBPK 240353Z AUTO 12006KT 10SM CLR 17/06 A2990 RMK AO2 SLP120
         T01670056
         
03Z KBPK 240253Z AUTO 12009KT 10SM CLR 18/06 A2990 RMK AO2 SLP119
         T01780056 53004
         
02Z KBPK 240153Z AUTO 13006KT 10SM CLR 19/06 A2989 RMK AO2 SLP115
         T01890056
         
01Z KBPK 240053Z AUTO 13006KT 10SM CLR 21/06 A2988 RMK AO2 SLP112
         T02060056
         
00Z KBPK 232353Z AUTO 14009G16KT 10SM CLR 23/04 A2989 RMK AO2 SLP116
         T02280044 10250 20222 56007
         
***** Today's Observations (Above) *****


23Z KBPK 232253Z AUTO 11008KT 10SM CLR 24/04 A2989 RMK AO2 SLP117
         T02440044
         
22Z KBPK 232153Z AUTO 12007KT 10SM CLR 25/03 A2990 RMK AO2 SLP119
         T02500033
         
***** Yesterday's Observations (Above) *****


Back to Main Page
http://www.srh.noaa.gov/lzk/qfcst.php

USA.gov is the U.S. government's official web portal to all federal, state and local government web resources and services.